Time;durP1;ratioP1;P1;durP2;ratioP2;P2;SDS_P1;SDS_P2;PMS_P1;PMS_P2;Temp;Humidity;BMP_temperature;BMP_pressure;BME280_temperature;BME280_humidity;BME280_pressure;Samples;Min_cycle;Max_cycle;Signal;HPM_P1;HPM_P2
2022/03/24 00:00:12;;;;;;;9.38;6.05;;;;;;;;;;4986356;28;20084;-51
2022/03/24 00:02:37;;;;;;;10.20;5.78;;;;;;;;;;4985982;28;20072;-52
2022/03/24 00:05:02;;;;;;;10.07;5.80;;;;;;;;;;4985802;28;20022;-51
2022/03/24 00:07:28;;;;;;;9.55;6.35;;;;;;;;;;4984850;28;20411;-51
2022/03/24 00:09:53;;;;;;;11.30;6.05;;;;;;;;;;4986062;28;20022;-51
2022/03/24 00:12:19;;;;;;;11.32;6.60;;;;;;;;;;4985719;28;20030;-51
2022/03/24 00:14:44;;;;;;;10.75;5.93;;;;;;;;;;4985527;28;20042;-51
2022/03/24 00:17:09;;;;;;;9.45;5.53;;;;;;;;;;4985575;28;20022;-51
2022/03/24 00:19:35;;;;;;;10.60;6.22;;;;;;;;;;4985995;28;20022;-51
2022/03/24 00:22:00;;;;;;;9.68;5.70;;;;;;;;;;4985741;28;20019;-50
2022/03/24 00:24:25;;;;;;;10.40;5.88;;;;;;;;;;4985285;28;20025;-50
2022/03/24 00:26:51;;;;;;;10.82;6.25;;;;;;;;;;4979406;28;20023;-50
2022/03/24 00:29:16;;;;;;;11.80;6.80;;;;;;;;;;4974673;28;20699;-51
2022/03/24 00:31:41;;;;;;;9.80;6.23;;;;;;;;;;4985866;28;20618;-50
2022/03/24 00:34:06;;;;;;;12.17;6.23;;;;;;;;;;4985343;28;20105;-51
2022/03/24 00:36:31;;;;;;;10.17;5.80;;;;;;;;;;4985423;28;20517;-52
2022/03/24 00:38:57;;;;;;;11.00;5.90;;;;;;;;;;4985542;28;20289;-50
2022/03/24 00:41:22;;;;;;;10.37;6.47;;;;;;;;;;4984743;28;20030;-50
2022/03/24 00:43:50;;;;;;;11.00;6.00;;;;;;;;;;4985117;28;20026;-50
2022/03/24 00:46:21;;;;;;;10.82;6.32;;;;;;;;;;4983451;28;20441;-52
2022/03/24 00:48:46;;;;;;;10.13;5.68;;;;;;;;;;4969983;28;20015;-50
2022/03/24 00:51:12;;;;;;;9.47;5.53;;;;;;;;;;4985083;28;20018;-50
2022/03/24 00:53:37;;;;;;;11.25;6.78;;;;;;;;;;4984789;28;20038;-50
2022/03/24 00:56:02;;;;;;;12.57;7.00;;;;;;;;;;4985236;28;20038;-50
2022/03/24 00:58:27;;;;;;;11.82;6.70;;;;;;;;;;4984282;28;20280;-50
2022/03/24 01:00:53;;;;;;;10.40;6.37;;;;;;;;;;4985336;28;20027;-50
2022/03/24 01:03:18;;;;;;;11.00;6.18;;;;;;;;;;4985113;28;20037;-50
2022/03/24 01:05:44;;;;;;;11.88;6.97;;;;;;;;;;4984726;28;20062;-50
2022/03/24 01:08:09;;;;;;;10.73;6.28;;;;;;;;;;4969471;28;20050;-50
2022/03/24 01:10:35;;;;;;;11.57;6.45;;;;;;;;;;5002679;28;20421;-52
2022/03/24 01:13:00;;;;;;;10.63;6.22;;;;;;;;;;5004490;28;20100;-50
2022/03/24 01:15:26;;;;;;;11.07;6.47;;;;;;;;;;5005203;28;20108;-50
2022/03/24 01:17:52;;;;;;;10.23;6.00;;;;;;;;;;4991979;28;20269;-51
2022/03/24 01:20:17;;;;;;;10.77;6.72;;;;;;;;;;4991886;28;20065;-50
2022/03/24 01:22:43;;;;;;;11.23;6.25;;;;;;;;;;4993671;28;20644;-51
2022/03/24 01:25:16;;;;;;;11.52;6.20;;;;;;;;;;4993898;28;20015;-51
2022/03/24 01:27:41;;;;;;;12.02;6.55;;;;;;;;;;4977646;28;20092;-52
2022/03/24 01:30:09;;;;;;;11.80;6.55;;;;;;;;;;4984442;28;20133;-50
2022/03/24 01:32:35;;;;;;;11.70;6.63;;;;;;;;;;4989117;28;20026;-50
2022/03/24 01:35:01;;;;;;;11.20;6.63;;;;;;;;;;4989047;28;20038;-49
2022/03/24 01:37:26;;;;;;;10.32;6.40;;;;;;;;;;4988485;28;20531;-52
2022/03/24 01:39:51;;;;;;;12.13;6.80;;;;;;;;;;4985148;28;20708;-50
2022/03/24 01:42:19;;;;;;;12.63;6.75;;;;;;;;;;4982893;28;20273;-51
2022/03/24 01:44:49;;;;;;;10.93;6.20;;;;;;;;;;4984117;28;20093;-51
2022/03/24 01:47:15;;;;;;;11.60;7.00;;;;;;;;;;4983269;28;20031;-51
2022/03/24 01:49:53;;;;;;;11.05;6.93;;;;;;;;;;4994850;28;20032;-50
2022/03/24 01:52:19;;;;;;;10.70;6.22;;;;;;;;;;5002612;28;20574;-50
2022/03/24 01:54:57;;;;;;;11.60;6.70;;;;;;;;;;5002076;28;20498;-50
2022/03/24 01:57:23;;;;;;;11.48;6.70;;;;;;;;;;4993458;28;20054;-49
2022/03/24 01:59:49;;;;;;;10.27;5.88;;;;;;;;;;4982855;28;20486;-50
2022/03/24 02:02:14;;;;;;;10.45;6.50;;;;;;;;;;4983026;28;20022;-50
2022/03/24 02:04:40;;;;;;;12.05;6.55;;;;;;;;;;4982497;28;20120;-50
2022/03/24 02:07:05;;;;;;;11.38;6.53;;;;;;;;;;4982763;28;20580;-50
2022/03/24 02:09:31;;;;;;;10.48;6.45;;;;;;;;;;4983383;28;20046;-50
2022/03/24 02:11:56;;;;;;;11.20;6.72;;;;;;;;;;4983553;28;20497;-50
2022/03/24 02:14:22;;;;;;;12.13;7.20;;;;;;;;;;4983273;28;20790;-49
2022/03/24 02:16:47;;;;;;;12.20;6.10;;;;;;;;;;4981557;28;20056;-50
2022/03/24 02:19:21;;;;;;;11.93;6.60;;;;;;;;;;4983182;28;20364;-50
2022/03/24 02:21:47;;;;;;;9.65;6.45;;;;;;;;;;4983440;28;20046;-51
2022/03/24 02:24:13;;;;;;;11.00;5.97;;;;;;;;;;4983374;28;20118;-50
2022/03/24 02:26:40;;;;;;;13.10;6.75;;;;;;;;;;4980134;28;20022;-51
2022/03/24 02:29:10;;;;;;;10.90;6.55;;;;;;;;;;4970536;28;20014;-51
2022/03/24 02:31:39;;;;;;;11.48;6.32;;;;;;;;;;4983462;28;20022;-49
2022/03/24 02:36:49;;;;;;;11.82;6.43;;;;;;;;;;4983473;28;20037;-51
2022/03/24 02:39:14;;;;;;;13.10;6.80;;;;;;;;;;4983441;28;20018;-51
2022/03/24 02:41:52;;;;;;;11.65;6.55;;;;;;;;;;4983182;28;20033;-50
2022/03/24 02:44:22;;;;;;;12.38;6.45;;;;;;;;;;4982953;28;20022;-49
2022/03/24 02:46:47;;;;;;;10.82;6.65;;;;;;;;;;4979028;28;20030;-50
2022/03/24 02:49:13;;;;;;;11.82;6.20;;;;;;;;;;4978341;28;20018;-51
2022/03/24 02:51:38;;;;;;;10.75;6.13;;;;;;;;;;5002631;28;20424;-51
2022/03/24 02:54:04;;;;;;;10.90;6.47;;;;;;;;;;5002113;28;20052;-51
2022/03/24 02:56:29;;;;;;;10.55;5.90;;;;;;;;;;5000819;28;20036;-50
2022/03/24 02:58:54;;;;;;;11.10;6.75;;;;;;;;;;4983079;28;20667;-51
2022/03/24 03:01:21;;;;;;;11.63;6.40;;;;;;;;;;4982843;28;20683;-50
2022/03/24 03:03:46;;;;;;;10.60;6.32;;;;;;;;;;4982976;28;20088;-51
2022/03/24 03:06:13;;;;;;;10.77;6.87;;;;;;;;;;4983084;28;20038;-50
2022/03/24 03:08:38;;;;;;;10.07;6.30;;;;;;;;;;4966518;28;20292;-51
2022/03/24 03:11:03;;;;;;;11.48;7.07;;;;;;;;;;4982960;28;20018;-50
2022/03/24 03:13:28;;;;;;;11.37;7.10;;;;;;;;;;4982752;28;20041;-50
2022/03/24 03:15:54;;;;;;;10.17;6.13;;;;;;;;;;4982842;28;20100;-51
2022/03/24 03:18:19;;;;;;;11.20;6.90;;;;;;;;;;4982713;28;20483;-51
2022/03/24 03:20:45;;;;;;;11.55;6.57;;;;;;;;;;4982517;28;20265;-50
2022/03/24 03:23:10;;;;;;;12.25;6.82;;;;;;;;;;4983006;28;20098;-51
2022/03/24 03:25:35;;;;;;;11.27;6.80;;;;;;;;;;4982793;28;20053;-50
2022/03/24 03:28:01;;;;;;;9.27;6.00;;;;;;;;;;4969136;28;20027;-50
2022/03/24 03:30:26;;;;;;;11.63;6.30;;;;;;;;;;4982653;28;20053;-51
2022/03/24 03:32:51;;;;;;;11.33;6.37;;;;;;;;;;4986603;28;20030;-51
2022/03/24 03:35:16;;;;;;;11.60;7.27;;;;;;;;;;4986495;28;20045;-51
2022/03/24 03:37:42;;;;;;;10.33;6.83;;;;;;;;;;4986267;28;20026;-51
2022/03/24 03:40:07;;;;;;;11.52;6.88;;;;;;;;;;4986469;28;20045;-50
2022/03/24 03:42:32;;;;;;;11.60;6.70;;;;;;;;;;4986315;28;20026;-50
2022/03/24 03:44:58;;;;;;;12.32;6.45;;;;;;;;;;4991528;28;20056;-50
2022/03/24 03:47:23;;;;;;;10.03;6.40;;;;;;;;;;4991603;28;20042;-50
2022/03/24 03:49:48;;;;;;;11.67;6.73;;;;;;;;;;4986311;28;20315;-50
2022/03/24 03:52:13;;;;;;;12.00;6.40;;;;;;;;;;4986532;28;20284;-50
2022/03/24 03:54:38;;;;;;;11.30;6.55;;;;;;;;;;4985765;28;20054;-50
2022/03/24 03:57:04;;;;;;;11.33;6.70;;;;;;;;;;4986024;28;20029;-52
2022/03/24 03:59:30;;;;;;;11.13;6.20;;;;;;;;;;4986191;28;20280;-52
2022/03/24 04:01:57;;;;;;;12.35;6.60;;;;;;;;;;4986205;28;20486;-50
2022/03/24 04:04:23;;;;;;;10.27;6.47;;;;;;;;;;4985587;28;20035;-51
2022/03/24 04:06:48;;;;;;;12.45;6.20;;;;;;;;;;4982235;28;20073;-50
2022/03/24 04:09:13;;;;;;;12.70;6.83;;;;;;;;;;4980903;28;20058;-50
2022/03/24 04:11:39;;;;;;;12.45;6.63;;;;;;;;;;5005705;28;20271;-51
2022/03/24 04:14:04;;;;;;;13.02;7.45;;;;;;;;;;5005264;28;20037;-49
2022/03/24 04:16:30;;;;;;;11.95;6.63;;;;;;;;;;5003895;28;20097;-51
2022/03/24 04:18:55;;;;;;;10.27;6.33;;;;;;;;;;4985953;28;20701;-50
2022/03/24 04:21:20;;;;;;;11.50;6.43;;;;;;;;;;4985928;28;20651;-51
2022/03/24 04:23:45;;;;;;;10.90;6.60;;;;;;;;;;4985754;28;20696;-50
2022/03/24 04:26:11;;;;;;;11.35;6.68;;;;;;;;;;4985827;28;20297;-51
2022/03/24 04:28:36;;;;;;;11.57;6.40;;;;;;;;;;4969344;28;20105;-52
2022/03/24 04:31:01;;;;;;;11.00;6.53;;;;;;;;;;4985677;28;20022;-50
2022/03/24 04:33:26;;;;;;;12.60;6.67;;;;;;;;;;4985303;28;20028;-50
2022/03/24 04:35:52;;;;;;;10.65;6.47;;;;;;;;;;4985633;28;20912;-50
2022/03/24 04:38:17;;;;;;;10.85;6.43;;;;;;;;;;4985488;28;20027;-49
2022/03/24 04:40:42;;;;;;;10.30;6.40;;;;;;;;;;4984921;28;20026;-49
2022/03/24 04:43:08;;;;;;;12.13;6.50;;;;;;;;;;4985437;28;20022;-50
2022/03/24 04:45:34;;;;;;;10.80;6.72;;;;;;;;;;4983593;28;20029;-50
2022/03/24 04:47:59;;;;;;;11.23;6.25;;;;;;;;;;4972023;28;20026;-51
2022/03/24 04:50:25;;;;;;;9.70;6.22;;;;;;;;;;4982288;28;20403;-50
2022/03/24 04:52:50;;;;;;;10.20;6.40;;;;;;;;;;4985530;28;20501;-51
2022/03/24 04:55:15;;;;;;;11.60;6.20;;;;;;;;;;4984947;28;20493;-50
2022/03/24 04:57:41;;;;;;;11.55;6.50;;;;;;;;;;4984919;28;20734;-50
2022/03/24 05:00:08;;;;;;;10.75;6.50;;;;;;;;;;4984238;28;20030;-50
2022/03/24 05:02:34;;;;;;;10.32;6.20;;;;;;;;;;4984169;28;20037;-50
2022/03/24 05:04:59;;;;;;;12.47;6.77;;;;;;;;;;4984687;28;20409;-49
2022/03/24 05:07:24;;;;;;;10.53;6.40;;;;;;;;;;4976119;28;20324;-50
2022/03/24 05:09:50;;;;;;;9.60;6.00;;;;;;;;;;4976567;28;20031;-50
2022/03/24 05:12:16;;;;;;;11.82;6.30;;;;;;;;;;4966652;28;20031;-50
2022/03/24 05:14:42;;;;;;;10.05;6.22;;;;;;;;;;4967999;28;20109;-51
2022/03/24 05:17:07;;;;;;;11.65;6.88;;;;;;;;;;4971026;28;20073;-50
2022/03/24 05:19:33;;;;;;;10.85;6.93;;;;;;;;;;4984298;28;20065;-50
2022/03/24 05:21:58;;;;;;;9.70;6.07;;;;;;;;;;4984321;28;20402;-49
2022/03/24 05:24:24;;;;;;;9.93;6.70;;;;;;;;;;4984103;28;20269;-50
2022/03/24 05:26:49;;;;;;;10.63;5.97;;;;;;;;;;4980514;28;20254;-50
2022/03/24 05:29:14;;;;;;;10.57;6.53;;;;;;;;;;4978948;28;20577;-50
2022/03/24 05:31:39;;;;;;;9.47;5.90;;;;;;;;;;5004283;28;20644;-50
2022/03/24 05:34:05;;;;;;;10.82;6.30;;;;;;;;;;5003773;28;20038;-50
2022/03/24 05:36:30;;;;;;;12.13;6.90;;;;;;;;;;5002341;28;20018;-50
2022/03/24 05:38:56;;;;;;;9.55;6.32;;;;;;;;;;4980314;28;20030;-50
2022/03/24 05:41:21;;;;;;;9.25;6.13;;;;;;;;;;4972914;28;20105;-51
2022/03/24 05:44:05;;;;;;;11.23;6.17;;;;;;;;;;4982812;28;20029;-51
2022/03/24 05:46:34;;;;;;;10.07;5.95;;;;;;;;;;4981751;28;20030;-52
2022/03/24 05:48:59;;;;;;;11.07;6.35;;;;;;;;;;4983345;28;20042;-51
2022/03/24 05:51:25;;;;;;;9.77;6.18;;;;;;;;;;5003216;28;20095;-51
2022/03/24 05:53:50;;;;;;;9.48;5.90;;;;;;;;;;5002970;28;20510;-50
2022/03/24 05:56:16;;;;;;;10.03;6.40;;;;;;;;;;5003530;28;20033;-51
2022/03/24 05:58:41;;;;;;;10.20;6.35;;;;;;;;;;4974367;28;20330;-52
2022/03/24 06:01:07;;;;;;;9.53;6.27;;;;;;;;;;4965178;28;20106;-51
2022/03/24 06:03:35;;;;;;;9.52;6.18;;;;;;;;;;4975754;28;20117;-50
2022/03/24 06:06:00;;;;;;;10.93;6.65;;;;;;;;;;4969642;28;20011;-52
2022/03/24 06:08:26;;;;;;;10.47;5.90;;;;;;;;;;4964737;28;20118;-50
2022/03/24 06:10:51;;;;;;;10.55;6.22;;;;;;;;;;5003152;28;20684;-50
2022/03/24 06:13:17;;;;;;;10.52;6.10;;;;;;;;;;5003139;28;20022;-50
2022/03/24 06:15:42;;;;;;;10.13;6.18;;;;;;;;;;4999964;28;20042;-51
2022/03/24 06:18:07;;;;;;;10.77;5.83;;;;;;;;;;4980708;28;20030;-51
2022/03/24 06:20:33;;;;;;;9.03;5.97;;;;;;;;;;4964578;28;20336;-50
2022/03/24 06:22:58;;;;;;;9.38;6.32;;;;;;;;;;4983277;28;20014;-51
2022/03/24 06:25:23;;;;;;;8.43;6.03;;;;;;;;;;4983078;28;20085;-50
2022/03/24 06:27:50;;;;;;;11.80;6.25;;;;;;;;;;4982668;28;20693;-51
2022/03/24 06:30:15;;;;;;;10.25;6.07;;;;;;;;;;4982414;28;20026;-51
2022/03/24 06:32:40;;;;;;;;;;;;;;;;;;4981296;28;20088;-52
2022/03/24 06:35:05;;;;;;;1457.90;999.90;;;;;;;;;;4981530;28;25073;-51
2022/03/24 06:37:31;;;;;;;1374.20;999.90;;;;;;;;;;4978941;28;24105;-51
2022/03/24 06:39:57;;;;;;;1168.70;995.63;;;;;;;;;;4979236;28;20490;-51
2022/03/24 06:42:23;;;;;;;844.42;741.17;;;;;;;;;;4982631;28;20235;-51
2022/03/24 06:44:48;;;;;;;1047.38;910.63;;;;;;;;;;4981337;28;20046;-51
2022/03/24 06:47:15;;;;;;;1084.03;965.30;;;;;;;;;;4981641;28;20717;-51
2022/03/24 06:49:40;;;;;;;;;;;;;;;;;;4980643;28;20434;-52
2022/03/24 06:52:05;;;;;;;;;;;;;;;;;;4977890;28;25141;-52
2022/03/24 06:54:30;;;;;;;;;;;;;;;;;;4978278;28;19922;-51
2022/03/24 06:56:55;;;;;;;;;;;;;;;;;;4980891;28;20451;-52
2022/03/24 06:59:20;;;;;;;;;;;;;;;;;;4982649;28;20792;-51
2022/03/24 07:01:46;;;;;;;;;;;;;;;;;;4982064;28;20495;-51
2022/03/24 07:04:11;;;;;;;488.80;336.05;;;;;;;;;;4982452;28;19910;-51
2022/03/24 07:06:38;;;;;;;139.23;91.97;;;;;;;;;;4980848;28;20034;-51
2022/03/24 07:09:03;;;;;;;21.38;18.38;;;;;;;;;;4968400;28;21000;-51
2022/03/24 07:11:28;;;;;;;18.40;13.52;;;;;;;;;;4982977;28;20030;-52
2022/03/24 07:13:53;;;;;;;15.73;8.33;;;;;;;;;;4982880;28;20101;-51
2022/03/24 07:16:18;;;;;;;16.27;9.20;;;;;;;;;;4981521;28;20030;-51
2022/03/24 07:18:44;;;;;;;55.23;34.57;;;;;;;;;;4982759;28;20116;-51
2022/03/24 07:21:10;;;;;;;45.23;32.73;;;;;;;;;;4983017;28;20277;-51
2022/03/24 07:23:35;;;;;;;;;;;;;;;;;;4982264;28;20750;-51
2022/03/24 07:26:00;;;;;;;;;;;;;;;;;;4993947;28;25159;-51
2022/03/24 07:28:25;;;;;;;;;;;;;;;;;;4984634;28;24155;-51
2022/03/24 07:30:50;;;;;;;;;;;;;;;;;;4981722;28;24077;-51
2022/03/24 07:33:16;;;;;;;;;;;;;;;;;;4981688;28;24060;-51
2022/03/24 07:35:41;;;;;;;;;;;;;;;;;;4985884;28;20311;-51
2022/03/24 07:38:07;;;;;;;;;;;;;;;;;;4987561;28;20435;-52
2022/03/24 07:40:32;;;;;;;;;;;;;;;;;;4987418;28;19930;-51
2022/03/24 07:42:58;;;;;;;1616.30;999.90;;;;;;;;;;4987894;28;25095;-52
2022/03/24 07:45:24;;;;;;;1063.80;845.60;;;;;;;;;;4985942;28;20027;-51
2022/03/24 07:48:02;;;;;;;544.85;395.33;;;;;;;;;;4985017;28;20053;-52
2022/03/24 07:50:28;;;;;;;805.53;659.50;;;;;;;;;;4985858;28;20026;-50
2022/03/24 07:52:53;;;;;;;421.27;271.50;;;;;;;;;;4987601;28;20060;-49
2022/03/24 07:55:19;;;;;;;;;;;;;;;;;;4981516;28;20092;-49
2022/03/24 07:57:44;;;;;;;;;;;;;;;;;;4979844;28;25090;-50
2022/03/24 08:00:10;;;;;;;1280.43;973.40;;;;;;;;;;4981399;28;19913;-50
2022/03/24 08:02:35;;;;;;;;;;;;;;;;;;4979988;28;20523;-50
2022/03/24 08:05:01;;;;;;;139.00;82.80;;;;;;;;;;4981345;28;20533;-50
2022/03/24 08:07:26;;;;;;;12.73;6.83;;;;;;;;;;4973552;28;20613;-51
2022/03/24 08:09:51;;;;;;;11.73;6.53;;;;;;;;;;4973647;28;20573;-51
2022/03/24 08:12:16;;;;;;;13.30;7.27;;;;;;;;;;4974700;28;20577;-51
2022/03/24 08:14:42;;;;;;;281.67;201.25;;;;;;;;;;4964683;28;20309;-52
2022/03/24 08:17:07;;;;;;;1285.20;989.42;;;;;;;;;;4966771;28;20104;-50
2022/03/24 08:19:34;;;;;;;1096.70;787.67;;;;;;;;;;4969369;28;20502;-49
2022/03/24 08:21:59;;;;;;;1086.20;759.53;;;;;;;;;;4966603;28;20034;-50
2022/03/24 08:24:24;;;;;;;751.80;480.33;;;;;;;;;;4970506;28;20538;-49
2022/03/24 08:26:49;;;;;;;766.08;541.28;;;;;;;;;;4969042;28;20676;-50
2022/03/24 08:29:14;;;;;;;1486.33;999.90;;;;;;;;;;4965481;28;20027;-51
2022/03/24 08:31:40;;;;;;;684.23;484.63;;;;;;;;;;4966537;28;20305;-50
2022/03/24 08:34:05;;;;;;;1454.10;999.90;;;;;;;;;;4965990;28;20308;-51
2022/03/24 08:36:31;;;;;;;1010.97;772.93;;;;;;;;;;4970447;28;20228;-50
2022/03/24 08:38:56;;;;;;;1189.10;922.00;;;;;;;;;;4972198;28;20280;-50
2022/03/24 08:41:22;;;;;;;1400.93;999.90;;;;;;;;;;4966699;28;20617;-50
2022/03/24 08:43:47;;;;;;;1497.50;999.90;;;;;;;;;;4967312;28;20031;-50
2022/03/24 08:46:13;;;;;;;1134.13;969.10;;;;;;;;;;4967266;28;19956;-50
2022/03/24 08:48:38;;;;;;;1111.78;964.22;;;;;;;;;;4967715;28;20042;-50
2022/03/24 08:51:03;;;;;;;1086.35;934.17;;;;;;;;;;4985980;28;20494;-50
2022/03/24 08:53:29;;;;;;;923.83;775.42;;;;;;;;;;4985100;28;20030;-50
2022/03/24 08:55:55;;;;;;;1377.43;999.90;;;;;;;;;;4969531;28;20034;-49
2022/03/24 08:58:21;;;;;;;1482.00;999.90;;;;;;;;;;4983017;28;20223;-51
2022/03/24 09:00:46;;;;;;;;;;;;;;;;;;4982880;28;19916;-50
2022/03/24 09:03:11;;;;;;;1468.30;999.90;;;;;;;;;;4977114;28;24071;-50
2022/03/24 09:05:37;;;;;;;1423.15;999.90;;;;;;;;;;4970305;28;20043;-50
2022/03/24 09:08:02;;;;;;;1365.78;999.90;;;;;;;;;;4964402;28;20034;-51
2022/03/24 09:10:27;;;;;;;1410.10;999.90;;;;;;;;;;4967790;28;20022;-50
2022/03/24 09:12:53;;;;;;;1372.83;999.90;;;;;;;;;;4964945;28;20637;-51
2022/03/24 09:15:18;;;;;;;1394.65;999.90;;;;;;;;;;4965720;28;20030;-51
2022/03/24 09:17:44;;;;;;;1405.40;999.90;;;;;;;;;;4966997;28;20022;-51
2022/03/24 09:20:10;;;;;;;1423.55;999.90;;;;;;;;;;4966553;28;20058;-50
2022/03/24 09:22:36;;;;;;;1436.80;999.90;;;;;;;;;;4965366;28;20521;-51
2022/03/24 09:25:02;;;;;;;1444.28;999.90;;;;;;;;;;4965113;28;20046;-51
2022/03/24 09:27:27;;;;;;;1443.70;999.90;;;;;;;;;;4966345;28;20023;-50
2022/03/24 09:29:52;;;;;;;1417.20;999.90;;;;;;;;;;4965218;28;20084;-51
2022/03/24 09:32:17;;;;;;;1423.18;999.90;;;;;;;;;;4964910;28;20357;-50
2022/03/24 09:34:43;;;;;;;1423.80;999.90;;;;;;;;;;4965056;28;20189;-50
2022/03/24 09:37:08;;;;;;;1403.90;999.90;;;;;;;;;;4964736;28;20300;-51
2022/03/24 09:39:33;;;;;;;1410.30;999.90;;;;;;;;;;4964756;28;20030;-50
2022/03/24 09:41:59;;;;;;;1417.30;999.90;;;;;;;;;;4964965;28;20276;-51
2022/03/24 09:44:24;;;;;;;1279.28;999.90;;;;;;;;;;4964641;28;20047;-51
2022/03/24 09:46:49;;;;;;;1241.28;999.90;;;;;;;;;;4968764;28;20037;-50
2022/03/24 09:49:14;;;;;;;1057.93;903.93;;;;;;;;;;4966775;28;20491;-49
2022/03/24 09:51:40;;;;;;;878.20;749.97;;;;;;;;;;4964509;28;21040;-51
2022/03/24 09:54:10;;;;;;;725.13;608.50;;;;;;;;;;4965498;28;20756;-50
2022/03/24 09:56:35;;;;;;;602.67;459.00;;;;;;;;;;4964571;28;20034;-51
2022/03/24 09:59:00;;;;;;;554.17;442.17;;;;;;;;;;4964330;28;20023;-51
2022/03/24 10:01:25;;;;;;;721.53;618.23;;;;;;;;;;4965289;28;20045;-52
2022/03/24 10:04:00;;;;;;;473.52;292.60;;;;;;;;;;4968386;28;20146;-51
2022/03/24 10:06:26;;;;;;;1156.80;983.45;;;;;;;;;;4967067;28;20391;-51
2022/03/24 10:08:52;;;;;;;1104.60;920.55;;;;;;;;;;4964627;28;20211;-51
2022/03/24 10:11:17;;;;;;;869.40;775.28;;;;;;;;;;4964300;28;20544;-50
2022/03/24 10:13:51;;;;;;;1255.65;999.90;;;;;;;;;;4974516;28;20679;-50
2022/03/24 10:16:39;;;;;;;1264.60;999.90;;;;;;;;;;4983965;28;24080;-51
2022/03/24 10:19:12;;;;;;;1370.80;999.90;;;;;;;;;;4968789;28;19937;-51
2022/03/24 10:21:37;;;;;;;;;;;;;;;;;;4983801;28;20227;-51
2022/03/24 10:24:07;;;;;;;1256.30;999.90;;;;;;;;;;4982820;28;19914;-50
2022/03/24 10:26:33;;;;;;;;;;;;;;;;;;4981686;28;19917;-51
2022/03/24 10:28:58;;;;;;;;;;;;;;;;;;4968943;28;24074;-50
2022/03/24 10:31:23;;;;;;;;;;;;;;;;;;4982800;28;25093;-50
2022/03/24 10:33:49;;;;;;;1373.85;999.90;;;;;;;;;;4982982;28;19918;-50
2022/03/24 10:36:17;;;;;;;1362.10;999.90;;;;;;;;;;4983555;28;20022;-50
2022/03/24 10:38:43;;;;;;;;;;;;;;;;;;4979467;28;20270;-51
2022/03/24 10:41:24;;;;;;;1483.37;999.90;;;;;;;;;;4969321;28;24108;-51
2022/03/24 10:43:50;;;;;;;1410.95;999.90;;;;;;;;;;4982619;28;20030;-50
2022/03/24 10:46:36;;;;;;;1464.30;999.90;;;;;;;;;;4982770;28;20030;-51
2022/03/24 10:49:23;;;;;;;1431.60;999.90;;;;;;;;;;4966631;28;19960;-50
2022/03/24 10:51:49;;;;;;;1343.80;999.90;;;;;;;;;;4982649;28;19953;-50
2022/03/24 10:54:14;;;;;;;;;;;;;;;;;;4982680;28;20077;-50
2022/03/24 10:56:39;;;;;;;;;;;;;;;;;;4981964;28;25136;-50
2022/03/24 10:59:04;;;;;;;;;;;;;;;;;;4981563;28;20307;-50
2022/03/24 11:01:30;;;;;;;;;;;;;;;;;;4982421;28;24058;-50
2022/03/24 11:03:55;;;;;;;;;;;;;;;;;;4981914;28;20263;-50
2022/03/24 11:06:20;;;;;;;;;;;;;;;;;;4980839;28;24058;-50
2022/03/24 11:08:45;;;;;;;;;;;;;;;;;;4980663;28;25183;-50
2022/03/24 11:11:10;;;;;;;;;;;;;;;;;;4981534;28;20429;-51
2022/03/24 11:13:38;;;;;;;1449.90;999.90;;;;;;;;;;4981932;28;19922;-50
2022/03/24 11:16:04;;;;;;;;;;;;;;;;;;4980612;28;20320;-50
2022/03/24 11:18:29;;;;;;;;;;;;;;;;;;4981710;28;20669;-51
2022/03/24 11:20:54;;;;;;;;;;;;;;;;;;4981015;28;24147;-52
2022/03/24 11:23:19;;;;;;;;;;;;;;;;;;4981554;28;25071;-51
2022/03/24 11:25:44;;;;;;;;;;;;;;;;;;4982325;28;19913;-51
2022/03/24 11:28:13;;;;;;;;;;;;;;;;;;4969232;28;19925;-52
2022/03/24 11:30:38;;;;;;;;;;;;;;;;;;4991683;28;19914;-51
2022/03/24 11:33:03;;;;;;;;;;;;;;;;;;4981542;28;24071;-53
2022/03/24 11:35:28;;;;;;;;;;;;;;;;;;4980749;28;25060;-51
2022/03/24 11:37:53;;;;;;;;;;;;;;;;;;4980848;28;24186;-52
2022/03/24 11:40:19;;;;;;;;;;;;;;;;;;4978596;28;19910;-51
2022/03/24 11:42:44;;;;;;;;;;;;;;;;;;4980031;28;24063;-52
2022/03/24 11:45:09;;;;;;;;;;;;;;;;;;4981848;28;24067;-52
2022/03/24 11:47:34;;;;;;;;;;;;;;;;;;4974199;28;24070;-51
2022/03/24 11:49:59;;;;;;;;;;;;;;;;;;4981651;28;24087;-51
2022/03/24 11:52:24;;;;;;;;;;;;;;;;;;4986326;28;19964;-51
2022/03/24 11:54:50;;;;;;;;;;;;;;;;;;4984736;28;24079;-51
2022/03/24 11:57:22;;;;;;;1278.30;999.90;;;;;;;;;;4984930;28;24123;-51
2022/03/24 11:59:47;;;;;;;;;;;;;;;;;;4985823;28;19910;-51
2022/03/24 12:02:12;;;;;;;;;;;;;;;;;;4985348;28;19964;-50
2022/03/24 12:04:37;;;;;;;;;;;;;;;;;;4984723;28;24089;-52
2022/03/24 12:07:03;;;;;;;;;;;;;;;;;;4981059;28;24074;-54
2022/03/24 12:09:28;;;;;;;;;;;;;;;;;;4975219;28;20310;-50
2022/03/24 12:11:54;;;;;;;;;;;;;;;;;;4985881;28;19910;-51
2022/03/24 12:14:20;;;;;;;;;;;;;;;;;;4986699;28;19922;-51
2022/03/24 12:16:45;;;;;;;;;;;;;;;;;;4985922;28;20421;-50
2022/03/24 12:19:10;;;;;;;;;;;;;;;;;;4985697;28;25064;-51
2022/03/24 12:21:35;;;;;;;;;;;;;;;;;;4981160;28;25058;-51
2022/03/24 12:24:00;;;;;;;;;;;;;;;;;;4984941;28;24076;-52
2022/03/24 12:26:25;;;;;;;;;;;;;;;;;;4984818;28;19916;-51
2022/03/24 12:28:50;;;;;;;;;;;;;;;;;;4970739;28;20449;-51
2022/03/24 12:31:15;;;;;;;;;;;;;;;;;;4985664;28;19910;-53
2022/03/24 12:33:41;;;;;;;;;;;;;;;;;;4983836;28;25059;-50
2022/03/24 12:36:06;;;;;;;;;;;;;;;;;;4983350;28;24064;-52
2022/03/24 12:38:32;;;;;;;;;;;;;;;;;;4983617;28;24104;-51
2022/03/24 12:41:03;;;;;;;1423.13;999.90;;;;;;;;;;4977561;28;24091;-51
2022/03/24 12:43:29;;;;;;;1094.88;787.47;;;;;;;;;;4979022;28;20081;-52
2022/03/24 12:46:13;;;;;;;205.85;117.70;;;;;;;;;;4985321;28;20011;-51
2022/03/24 12:48:39;;;;;;;666.72;469.45;;;;;;;;;;4983164;28;20490;-53
2022/03/24 12:51:17;;;;;;;929.72;673.00;;;;;;;;;;4984276;28;20025;-51
2022/03/24 12:53:52;;;;;;;290.80;184.98;;;;;;;;;;4984852;28;20065;-51
2022/03/24 12:56:26;;;;;;;264.65;146.05;;;;;;;;;;4984911;28;20034;-52
2022/03/24 12:58:52;;;;;;;133.80;73.30;;;;;;;;;;4984698;28;20110;-51
2022/03/24 13:01:17;;;;;;;15.75;10.85;;;;;;;;;;4983307;28;20014;-51
2022/03/24 13:03:44;;;;;;;909.72;712.13;;;;;;;;;;4979928;28;20481;-52
2022/03/24 13:06:09;;;;;;;790.88;686.80;;;;;;;;;;4974549;28;20422;-52
2022/03/24 13:08:35;;;;;;;696.60;513.20;;;;;;;;;;4974737;28;20018;-51
2022/03/24 13:11:03;;;;;;;827.28;737.10;;;;;;;;;;4975476;28;20035;-51
2022/03/24 13:13:28;;;;;;;849.92;757.25;;;;;;;;;;4981669;28;20030;-52
2022/03/24 13:15:53;;;;;;;963.70;846.30;;;;;;;;;;4979887;28;20413;-53
2022/03/24 13:18:18;;;;;;;1130.37;999.90;;;;;;;;;;4984347;28;20679;-50
2022/03/24 13:20:48;;;;;;;915.30;816.97;;;;;;;;;;4984826;28;20276;-50
2022/03/24 13:23:14;;;;;;;654.90;475.70;;;;;;;;;;4983456;28;20027;-51
2022/03/24 13:25:41;;;;;;;530.00;376.98;;;;;;;;;;4984975;28;20043;-52
2022/03/24 13:28:06;;;;;;;489.65;332.95;;;;;;;;;;4983935;28;20057;-51
2022/03/24 13:30:32;;;;;;;338.65;206.00;;;;;;;;;;4980272;28;20042;-52
2022/03/24 13:32:58;;;;;;;239.98;152.18;;;;;;;;;;4985853;28;20077;-51
2022/03/24 13:35:24;;;;;;;271.63;166.05;;;;;;;;;;4987230;28;20042;-51
2022/03/24 13:37:53;;;;;;;231.95;149.02;;;;;;;;;;4987605;28;20010;-52
2022/03/24 13:40:22;;;;;;;302.08;194.13;;;;;;;;;;4983243;28;20655;-51
2022/03/24 13:42:47;;;;;;;310.98;196.80;;;;;;;;;;4988621;28;20635;-51
2022/03/24 13:45:13;;;;;;;365.55;231.25;;;;;;;;;;4984508;28;20038;-52
2022/03/24 13:47:42;;;;;;;722.17;628.08;;;;;;;;;;4975064;28;20395;-51
2022/03/24 13:50:07;;;;;;;1118.00;981.07;;;;;;;;;;4973218;28;20027;-50
2022/03/24 13:52:37;;;;;;;1234.72;999.90;;;;;;;;;;4966641;28;20029;-51
2022/03/24 13:55:11;;;;;;;1196.20;999.90;;;;;;;;;;4968385;28;20038;-52
2022/03/24 13:57:42;;;;;;;1323.90;999.90;;;;;;;;;;4966075;28;19987;-52
2022/03/24 14:00:08;;;;;;;938.05;836.63;;;;;;;;;;4970244;28;20018;-52
2022/03/24 14:02:34;;;;;;;1165.93;999.90;;;;;;;;;;4983511;28;20077;-52
2022/03/24 14:05:04;;;;;;;1189.75;999.90;;;;;;;;;;4983436;28;20029;-52
2022/03/24 14:07:29;;;;;;;1127.82;999.90;;;;;;;;;;4979930;28;20474;-51
2022/03/24 14:09:55;;;;;;;1134.10;999.90;;;;;;;;;;4967076;28;20061;-51
2022/03/24 14:12:22;;;;;;;1189.50;999.90;;;;;;;;;;4966192;28;20966;-51
2022/03/24 14:14:48;;;;;;;1227.00;999.90;;;;;;;;;;4968604;28;20149;-52
2022/03/24 14:17:14;;;;;;;;;;;;;;;;;;4966569;28;20037;-51
2022/03/24 14:19:52;;;;;;;1325.60;999.90;;;;;;;;;;4965287;28;20050;-52
2022/03/24 14:22:17;;;;;;;1320.57;999.90;;;;;;;;;;4968166;28;20490;-52
2022/03/24 14:24:46;;;;;;;1177.20;999.90;;;;;;;;;;4980804;28;20092;-53
2022/03/24 14:27:20;;;;;;;1211.80;999.90;;;;;;;;;;4983382;28;20027;-52
2022/03/24 14:30:02;;;;;;;1177.60;999.90;;;;;;;;;;4984016;28;20038;-51
2022/03/24 14:32:27;;;;;;;429.00;272.13;;;;;;;;;;4977358;28;20035;-51